Terminal Aerodrome Forecast
Issued by NWS

Home | Current Version | Previous Version | Text Only | Print | Product List | Glossary On
Versions: 1 2 3 4 5 6 7 8 9 10 11 12
000
FTUS45 KREV 251725
TAFRNO
TAF
KRNO 251725Z 2518/2618 VRB04KT P6SM FEW150
     FM252000 18009KT P6SM FEW090 SCT150
     FM252300 27011G20KT P6SM SCT090 BKN150
     FM260400 30011KT P6SM SCT150
     FM260900 VRB04KT P6SM SKC=

USA.gov is the U.S. government's official web portal to all federal, state and local government web resources and services.